sensor_id;sensor_type;location;lat;lon;timestamp;P1;durP1;ratioP1;P2;durP2;ratioP2
47251;SDS011;32991;51.374;11.586;2023-04-29T00:02:15;45.35;;;35.22;;
47251;SDS011;32991;51.374;11.586;2023-04-29T00:04:41;44.25;;;36.25;;
47251;SDS011;32991;51.374;11.586;2023-04-29T00:07:08;48.95;;;36.92;;
47251;SDS011;32991;51.374;11.586;2023-04-29T00:09:34;50.35;;;37.28;;
47251;SDS011;32991;51.374;11.586;2023-04-29T00:12:02;49.28;;;37.03;;
47251;SDS011;32991;51.374;11.586;2023-04-29T00:14:29;51.38;;;38.05;;
47251;SDS011;32991;51.374;11.586;2023-04-29T00:16:55;51.63;;;39.80;;
47251;SDS011;32991;51.374;11.586;2023-04-29T00:19:23;53.35;;;39.03;;
47251;SDS011;32991;51.374;11.586;2023-04-29T00:21:50;49.20;;;38.20;;
47251;SDS011;32991;51.374;11.586;2023-04-29T00:24:17;49.38;;;38.80;;
47251;SDS011;32991;51.374;11.586;2023-04-29T00:26:43;51.40;;;39.50;;
47251;SDS011;32991;51.374;11.586;2023-04-29T00:29:10;53.45;;;39.17;;
47251;SDS011;32991;51.374;11.586;2023-04-29T00:31:37;49.65;;;38.03;;
47251;SDS011;32991;51.374;11.586;2023-04-29T00:34:03;51.78;;;39.15;;
47251;SDS011;32991;51.374;11.586;2023-04-29T00:36:30;52.80;;;39.65;;
47251;SDS011;32991;51.374;11.586;2023-04-29T00:38:58;50.70;;;38.53;;
47251;SDS011;32991;51.374;11.586;2023-04-29T00:41:24;52.70;;;40.60;;
47251;SDS011;32991;51.374;11.586;2023-04-29T00:43:51;54.03;;;39.75;;
47251;SDS011;32991;51.374;11.586;2023-04-29T00:46:18;54.10;;;39.80;;
47251;SDS011;32991;51.374;11.586;2023-04-29T00:48:45;55.10;;;39.05;;
47251;SDS011;32991;51.374;11.586;2023-04-29T00:51:11;52.63;;;38.53;;
47251;SDS011;32991;51.374;11.586;2023-04-29T00:53:38;50.05;;;38.92;;
47251;SDS011;32991;51.374;11.586;2023-04-29T00:56:06;46.47;;;35.70;;
47251;SDS011;32991;51.374;11.586;2023-04-29T00:58:34;46.17;;;37.20;;
47251;SDS011;32991;51.374;11.586;2023-04-29T01:01:01;47.78;;;36.88;;
47251;SDS011;32991;51.374;11.586;2023-04-29T01:03:32;49.75;;;37.10;;
47251;SDS011;32991;51.374;11.586;2023-04-29T01:11:48;45.10;;;34.53;;
47251;SDS011;32991;51.374;11.586;2023-04-29T01:14:32;43.63;;;34.00;;
47251;SDS011;32991;51.374;11.586;2023-04-29T01:17:03;42.45;;;32.95;;
47251;SDS011;32991;51.374;11.586;2023-04-29T01:19:39;45.83;;;35.30;;
47251;SDS011;32991;51.374;11.586;2023-04-29T01:22:13;44.78;;;34.63;;
47251;SDS011;32991;51.374;11.586;2023-04-29T01:24:39;46.28;;;36.20;;
47251;SDS011;32991;51.374;11.586;2023-04-29T01:27:13;46.85;;;35.72;;
47251;SDS011;32991;51.374;11.586;2023-04-29T01:33:21;45.47;;;36.47;;
47251;SDS011;32991;51.374;11.586;2023-04-29T01:42:00;45.63;;;35.72;;
47251;SDS011;32991;51.374;11.586;2023-04-29T01:44:30;48.20;;;35.90;;
47251;SDS011;32991;51.374;11.586;2023-04-29T01:46:58;46.45;;;36.17;;
47251;SDS011;32991;51.374;11.586;2023-04-29T01:49:34;46.08;;;36.53;;
47251;SDS011;32991;51.374;11.586;2023-04-29T01:52:02;46.60;;;34.80;;
47251;SDS011;32991;51.374;11.586;2023-04-29T01:54:30;44.75;;;34.10;;
47251;SDS011;32991;51.374;11.586;2023-04-29T01:56:57;41.92;;;33.10;;
47251;SDS011;32991;51.374;11.586;2023-04-29T01:59:35;44.22;;;32.75;;
47251;SDS011;32991;51.374;11.586;2023-04-29T02:02:31;41.70;;;33.47;;
47251;SDS011;32991;51.374;11.586;2023-04-29T02:05:08;45.80;;;34.08;;
47251;SDS011;32991;51.374;11.586;2023-04-29T02:07:39;46.38;;;32.30;;
47251;SDS011;32991;51.374;11.586;2023-04-29T02:10:07;41.67;;;31.75;;
47251;SDS011;32991;51.374;11.586;2023-04-29T02:12:37;41.50;;;30.92;;
47251;SDS011;32991;51.374;11.586;2023-04-29T02:15:03;41.15;;;30.80;;
47251;SDS011;32991;51.374;11.586;2023-04-29T02:17:32;40.08;;;30.35;;
47251;SDS011;32991;51.374;11.586;2023-04-29T02:19:59;36.58;;;28.25;;
47251;SDS011;32991;51.374;11.586;2023-04-29T02:22:25;32.80;;;25.13;;
47251;SDS011;32991;51.374;11.586;2023-04-29T02:24:54;31.10;;;24.73;;
47251;SDS011;32991;51.374;11.586;2023-04-29T02:27:21;32.10;;;24.13;;
47251;SDS011;32991;51.374;11.586;2023-04-29T02:29:48;26.77;;;22.67;;
47251;SDS011;32991;51.374;11.586;2023-04-29T02:32:15;28.70;;;22.80;;
47251;SDS011;32991;51.374;11.586;2023-04-29T02:34:45;29.30;;;24.00;;
47251;SDS011;32991;51.374;11.586;2023-04-29T02:37:11;30.27;;;23.85;;
47251;SDS011;32991;51.374;11.586;2023-04-29T02:39:38;30.13;;;24.42;;
47251;SDS011;32991;51.374;11.586;2023-04-29T02:42:04;32.30;;;24.30;;
47251;SDS011;32991;51.374;11.586;2023-04-29T02:44:31;27.10;;;23.02;;
47251;SDS011;32991;51.374;11.586;2023-04-29T02:46:58;32.58;;;25.95;;
47251;SDS011;32991;51.374;11.586;2023-04-29T02:49:24;30.80;;;24.77;;
47251;SDS011;32991;51.374;11.586;2023-04-29T02:51:51;31.65;;;25.67;;
47251;SDS011;32991;51.374;11.586;2023-04-29T02:54:17;33.10;;;25.88;;
47251;SDS011;32991;51.374;11.586;2023-04-29T02:56:44;29.90;;;24.30;;
47251;SDS011;32991;51.374;11.586;2023-04-29T02:59:11;32.03;;;24.70;;
47251;SDS011;32991;51.374;11.586;2023-04-29T03:01:38;31.95;;;24.20;;
47251;SDS011;32991;51.374;11.586;2023-04-29T03:04:05;31.95;;;25.25;;
47251;SDS011;32991;51.374;11.586;2023-04-29T03:06:32;32.35;;;25.27;;
47251;SDS011;32991;51.374;11.586;2023-04-29T03:08:59;31.80;;;24.15;;
47251;SDS011;32991;51.374;11.586;2023-04-29T03:11:25;32.40;;;24.52;;
47251;SDS011;32991;51.374;11.586;2023-04-29T03:13:53;32.20;;;24.20;;
47251;SDS011;32991;51.374;11.586;2023-04-29T03:16:20;30.63;;;24.52;;
47251;SDS011;32991;51.374;11.586;2023-04-29T03:18:47;33.25;;;24.77;;
47251;SDS011;32991;51.374;11.586;2023-04-29T03:21:14;33.88;;;24.48;;
47251;SDS011;32991;51.374;11.586;2023-04-29T03:23:41;31.23;;;21.92;;
47251;SDS011;32991;51.374;11.586;2023-04-29T03:26:11;29.73;;;22.73;;
47251;SDS011;32991;51.374;11.586;2023-04-29T03:28:38;30.35;;;22.15;;
47251;SDS011;32991;51.374;11.586;2023-04-29T03:31:04;31.20;;;22.65;;
47251;SDS011;32991;51.374;11.586;2023-04-29T03:33:31;32.22;;;22.55;;
47251;SDS011;32991;51.374;11.586;2023-04-29T03:35:57;33.85;;;23.52;;
47251;SDS011;32991;51.374;11.586;2023-04-29T03:38:35;29.30;;;21.58;;
47251;SDS011;32991;51.374;11.586;2023-04-29T03:41:03;28.80;;;20.02;;
47251;SDS011;32991;51.374;11.586;2023-04-29T03:43:30;28.67;;;20.30;;
47251;SDS011;32991;51.374;11.586;2023-04-29T03:45:56;29.15;;;20.42;;
47251;SDS011;32991;51.374;11.586;2023-04-29T03:48:24;29.17;;;20.88;;
47251;SDS011;32991;51.374;11.586;2023-04-29T03:50:51;31.65;;;21.77;;
47251;SDS011;32991;51.374;11.586;2023-04-29T03:53:18;33.13;;;22.05;;
47251;SDS011;32991;51.374;11.586;2023-04-29T03:55:46;34.35;;;22.17;;
47251;SDS011;32991;51.374;11.586;2023-04-29T03:58:14;35.17;;;22.25;;
47251;SDS011;32991;51.374;11.586;2023-04-29T04:00:41;34.63;;;22.33;;
47251;SDS011;32991;51.374;11.586;2023-04-29T04:03:14;30.95;;;21.35;;
47251;SDS011;32991;51.374;11.586;2023-04-29T04:05:42;32.03;;;22.45;;
47251;SDS011;32991;51.374;11.586;2023-04-29T04:08:12;32.97;;;23.85;;
47251;SDS011;32991;51.374;11.586;2023-04-29T04:10:54;27.88;;;18.67;;
47251;SDS011;32991;51.374;11.586;2023-04-29T04:13:33;31.13;;;22.52;;
47251;SDS011;32991;51.374;11.586;2023-04-29T04:16:00;31.98;;;22.50;;
47251;SDS011;32991;51.374;11.586;2023-04-29T04:18:28;25.98;;;19.83;;
47251;SDS011;32991;51.374;11.586;2023-04-29T04:20:55;26.98;;;19.60;;
47251;SDS011;32991;51.374;11.586;2023-04-29T04:23:23;29.50;;;20.55;;
47251;SDS011;32991;51.374;11.586;2023-04-29T04:25:50;25.38;;;19.02;;
47251;SDS011;32991;51.374;11.586;2023-04-29T04:28:37;27.00;;;20.27;;
47251;SDS011;32991;51.374;11.586;2023-04-29T04:31:08;26.73;;;21.55;;
47251;SDS011;32991;51.374;11.586;2023-04-29T04:33:34;29.20;;;21.83;;
47251;SDS011;32991;51.374;11.586;2023-04-29T04:36:01;26.40;;;21.00;;
47251;SDS011;32991;51.374;11.586;2023-04-29T04:38:28;25.38;;;19.75;;
47251;SDS011;32991;51.374;11.586;2023-04-29T04:40:54;26.35;;;20.25;;
47251;SDS011;32991;51.374;11.586;2023-04-29T04:43:33;24.52;;;19.05;;
47251;SDS011;32991;51.374;11.586;2023-04-29T04:46:08;25.80;;;19.73;;
47251;SDS011;32991;51.374;11.586;2023-04-29T04:48:38;24.98;;;18.75;;
47251;SDS011;32991;51.374;11.586;2023-04-29T04:51:11;22.33;;;17.42;;
47251;SDS011;32991;51.374;11.586;2023-04-29T04:53:38;18.40;;;15.13;;
47251;SDS011;32991;51.374;11.586;2023-04-29T04:56:09;20.85;;;16.08;;
47251;SDS011;32991;51.374;11.586;2023-04-29T04:58:37;17.23;;;14.27;;
47251;SDS011;32991;51.374;11.586;2023-04-29T05:01:03;16.10;;;14.05;;
47251;SDS011;32991;51.374;11.586;2023-04-29T05:03:30;18.13;;;14.38;;
47251;SDS011;32991;51.374;11.586;2023-04-29T05:05:57;16.10;;;13.73;;
47251;SDS011;32991;51.374;11.586;2023-04-29T05:08:26;16.58;;;13.57;;
47251;SDS011;32991;51.374;11.586;2023-04-29T05:10:54;15.90;;;13.15;;
47251;SDS011;32991;51.374;11.586;2023-04-29T05:13:21;14.88;;;13.00;;
47251;SDS011;32991;51.374;11.586;2023-04-29T05:15:48;16.98;;;13.98;;
47251;SDS011;32991;51.374;11.586;2023-04-29T05:18:19;16.75;;;14.05;;
47251;SDS011;32991;51.374;11.586;2023-04-29T05:20:48;17.25;;;13.85;;
47251;SDS011;32991;51.374;11.586;2023-04-29T05:23:15;17.42;;;12.88;;
47251;SDS011;32991;51.374;11.586;2023-04-29T05:25:44;15.43;;;13.07;;
47251;SDS011;32991;51.374;11.586;2023-04-29T05:28:10;16.58;;;12.82;;
47251;SDS011;32991;51.374;11.586;2023-04-29T05:30:39;14.07;;;12.30;;
47251;SDS011;32991;51.374;11.586;2023-04-29T05:33:06;16.15;;;12.48;;
47251;SDS011;32991;51.374;11.586;2023-04-29T05:35:33;14.73;;;12.95;;
47251;SDS011;32991;51.374;11.586;2023-04-29T05:37:59;15.20;;;12.57;;
47251;SDS011;32991;51.374;11.586;2023-04-29T05:40:49;16.80;;;13.20;;
47251;SDS011;32991;51.374;11.586;2023-04-29T05:43:39;15.88;;;13.32;;
47251;SDS011;32991;51.374;11.586;2023-04-29T05:46:06;15.88;;;12.48;;
47251;SDS011;32991;51.374;11.586;2023-04-29T05:48:33;14.40;;;11.85;;
47251;SDS011;32991;51.374;11.586;2023-04-29T05:50:59;15.57;;;12.77;;
47251;SDS011;32991;51.374;11.586;2023-04-29T05:53:27;15.02;;;12.68;;
47251;SDS011;32991;51.374;11.586;2023-04-29T05:55:53;13.65;;;11.70;;
47251;SDS011;32991;51.374;11.586;2023-04-29T05:58:20;16.00;;;12.35;;
47251;SDS011;32991;51.374;11.586;2023-04-29T06:00:46;14.45;;;11.63;;
47251;SDS011;32991;51.374;11.586;2023-04-29T06:03:19;13.95;;;11.60;;
47251;SDS011;32991;51.374;11.586;2023-04-29T06:05:51;13.80;;;11.43;;
47251;SDS011;32991;51.374;11.586;2023-04-29T06:08:37;13.68;;;11.32;;
47251;SDS011;32991;51.374;11.586;2023-04-29T06:11:13;13.77;;;11.73;;
47251;SDS011;32991;51.374;11.586;2023-04-29T06:13:40;13.23;;;10.73;;
47251;SDS011;32991;51.374;11.586;2023-04-29T06:16:07;12.25;;;10.93;;
47251;SDS011;32991;51.374;11.586;2023-04-29T06:18:34;12.45;;;10.65;;
47251;SDS011;32991;51.374;11.586;2023-04-29T06:21:00;14.98;;;11.35;;
47251;SDS011;32991;51.374;11.586;2023-04-29T06:23:27;11.88;;;9.85;;
47251;SDS011;32991;51.374;11.586;2023-04-29T06:25:54;12.52;;;10.65;;
47251;SDS011;32991;51.374;11.586;2023-04-29T06:28:20;11.88;;;10.35;;
47251;SDS011;32991;51.374;11.586;2023-04-29T06:30:47;18.33;;;10.15;;
47251;SDS011;32991;51.374;11.586;2023-04-29T06:33:14;10.95;;;9.77;;
47251;SDS011;32991;51.374;11.586;2023-04-29T06:35:41;10.82;;;9.65;;
47251;SDS011;32991;51.374;11.586;2023-04-29T06:38:26;11.43;;;9.88;;
47251;SDS011;32991;51.374;11.586;2023-04-29T06:41:00;12.63;;;9.98;;
47251;SDS011;32991;51.374;11.586;2023-04-29T06:43:46;11.50;;;10.25;;
47251;SDS011;32991;51.374;11.586;2023-04-29T06:46:32;12.43;;;9.73;;
47251;SDS011;32991;51.374;11.586;2023-04-29T06:49:03;13.70;;;10.43;;
47251;SDS011;32991;51.374;11.586;2023-04-29T06:51:30;12.20;;;10.70;;
47251;SDS011;32991;51.374;11.586;2023-04-29T06:53:58;12.88;;;11.25;;
47251;SDS011;32991;51.374;11.586;2023-04-29T06:56:24;12.10;;;10.90;;
47251;SDS011;32991;51.374;11.586;2023-04-29T06:58:50;12.95;;;11.52;;
47251;SDS011;32991;51.374;11.586;2023-04-29T07:01:17;14.02;;;10.77;;
47251;SDS011;32991;51.374;11.586;2023-04-29T07:03:44;13.55;;;11.60;;
47251;SDS011;32991;51.374;11.586;2023-04-29T07:06:10;14.50;;;12.50;;
47251;SDS011;32991;51.374;11.586;2023-04-29T07:08:37;13.63;;;12.18;;
47251;SDS011;32991;51.374;11.586;2023-04-29T07:11:04;13.73;;;11.77;;
47251;SDS011;32991;51.374;11.586;2023-04-29T07:13:30;17.33;;;12.45;;
47251;SDS011;32991;51.374;11.586;2023-04-29T07:15:57;14.25;;;12.45;;
47251;SDS011;32991;51.374;11.586;2023-04-29T07:18:24;16.60;;;13.10;;
47251;SDS011;32991;51.374;11.586;2023-04-29T07:20:50;19.25;;;14.93;;
47251;SDS011;32991;51.374;11.586;2023-04-29T07:23:18;19.42;;;14.07;;
47251;SDS011;32991;51.374;11.586;2023-04-29T07:25:44;21.63;;;16.25;;
47251;SDS011;32991;51.374;11.586;2023-04-29T07:28:11;20.55;;;16.88;;
47251;SDS011;32991;51.374;11.586;2023-04-29T07:30:37;21.42;;;16.55;;
47251;SDS011;32991;51.374;11.586;2023-04-29T07:33:04;24.05;;;18.08;;
47251;SDS011;32991;51.374;11.586;2023-04-29T07:35:31;24.95;;;17.85;;
47251;SDS011;32991;51.374;11.586;2023-04-29T07:37:58;25.15;;;17.80;;
47251;SDS011;32991;51.374;11.586;2023-04-29T07:40:24;24.02;;;17.85;;
47251;SDS011;32991;51.374;11.586;2023-04-29T07:42:55;24.52;;;18.02;;
47251;SDS011;32991;51.374;11.586;2023-04-29T07:45:22;23.48;;;17.95;;
47251;SDS011;32991;51.374;11.586;2023-04-29T07:47:48;21.10;;;15.85;;
47251;SDS011;32991;51.374;11.586;2023-04-29T07:50:15;21.45;;;16.40;;
47251;SDS011;32991;51.374;11.586;2023-04-29T07:52:42;20.75;;;16.10;;
47251;SDS011;32991;51.374;11.586;2023-04-29T07:55:09;21.20;;;16.63;;
47251;SDS011;32991;51.374;11.586;2023-04-29T07:57:36;22.70;;;16.90;;
47251;SDS011;32991;51.374;11.586;2023-04-29T08:00:02;24.42;;;17.83;;
47251;SDS011;32991;51.374;11.586;2023-04-29T08:02:39;21.77;;;16.25;;
47251;SDS011;32991;51.374;11.586;2023-04-29T08:05:08;20.85;;;15.75;;
47251;SDS011;32991;51.374;11.586;2023-04-29T08:07:35;17.35;;;14.52;;
47251;SDS011;32991;51.374;11.586;2023-04-29T08:10:01;15.57;;;13.35;;
47251;SDS011;32991;51.374;11.586;2023-04-29T08:12:28;14.38;;;12.50;;
47251;SDS011;32991;51.374;11.586;2023-04-29T08:14:54;16.10;;;12.88;;
47251;SDS011;32991;51.374;11.586;2023-04-29T08:17:21;15.77;;;13.05;;
47251;SDS011;32991;51.374;11.586;2023-04-29T08:19:47;14.65;;;12.15;;
47251;SDS011;32991;51.374;11.586;2023-04-29T08:22:15;13.75;;;11.90;;
47251;SDS011;32991;51.374;11.586;2023-04-29T08:24:42;14.63;;;11.98;;
47251;SDS011;32991;51.374;11.586;2023-04-29T08:27:10;14.15;;;11.75;;
47251;SDS011;32991;51.374;11.586;2023-04-29T08:29:36;12.25;;;10.98;;
47251;SDS011;32991;51.374;11.586;2023-04-29T08:32:03;9.63;;;8.63;;
47251;SDS011;32991;51.374;11.586;2023-04-29T08:34:30;9.07;;;8.18;;
47251;SDS011;32991;51.374;11.586;2023-04-29T08:36:58;9.60;;;8.18;;
47251;SDS011;32991;51.374;11.586;2023-04-29T08:39:25;9.13;;;8.23;;
47251;SDS011;32991;51.374;11.586;2023-04-29T08:41:53;10.13;;;9.13;;
47251;SDS011;32991;51.374;11.586;2023-04-29T08:44:21;9.73;;;8.82;;
47251;SDS011;32991;51.374;11.586;2023-04-29T08:46:48;10.52;;;8.98;;
47251;SDS011;32991;51.374;11.586;2023-04-29T08:49:16;11.32;;;10.27;;
47251;SDS011;32991;51.374;11.586;2023-04-29T08:51:42;12.55;;;11.40;;
47251;SDS011;32991;51.374;11.586;2023-04-29T08:54:09;12.32;;;11.13;;
47251;SDS011;32991;51.374;11.586;2023-04-29T08:56:36;12.98;;;11.77;;
47251;SDS011;32991;51.374;11.586;2023-04-29T08:59:04;14.73;;;13.23;;
47251;SDS011;32991;51.374;11.586;2023-04-29T09:01:34;16.70;;;15.00;;
47251;SDS011;32991;51.374;11.586;2023-04-29T09:06:35;22.75;;;20.35;;
47251;SDS011;32991;51.374;11.586;2023-04-29T09:09:02;23.27;;;20.77;;
47251;SDS011;32991;51.374;11.586;2023-04-29T09:11:29;25.05;;;21.02;;
47251;SDS011;32991;51.374;11.586;2023-04-29T09:13:59;24.90;;;21.45;;
47251;SDS011;32991;51.374;11.586;2023-04-29T09:16:27;26.65;;;21.38;;
47251;SDS011;32991;51.374;11.586;2023-04-29T09:18:54;25.70;;;22.45;;
47251;SDS011;32991;51.374;11.586;2023-04-29T09:21:22;26.55;;;22.75;;
47251;SDS011;32991;51.374;11.586;2023-04-29T09:23:53;27.38;;;22.67;;
47251;SDS011;32991;51.374;11.586;2023-04-29T09:26:22;26.02;;;21.80;;
47251;SDS011;32991;51.374;11.586;2023-04-29T09:29:05;25.35;;;21.65;;
47251;SDS011;32991;51.374;11.586;2023-04-29T09:31:33;29.17;;;22.17;;
47251;SDS011;32991;51.374;11.586;2023-04-29T09:34:00;24.20;;;19.98;;
47251;SDS011;32991;51.374;11.586;2023-04-29T09:36:45;22.13;;;17.77;;
47251;SDS011;32991;51.374;11.586;2023-04-29T09:39:16;22.40;;;19.33;;
47251;SDS011;32991;51.374;11.586;2023-04-29T09:44:22;27.65;;;21.00;;
47251;SDS011;32991;51.374;11.586;2023-04-29T09:46:58;26.67;;;22.15;;
47251;SDS011;32991;51.374;11.586;2023-04-29T09:49:30;29.83;;;23.25;;
47251;SDS011;32991;51.374;11.586;2023-04-29T09:52:03;30.65;;;25.25;;
47251;SDS011;32991;51.374;11.586;2023-04-29T09:54:31;33.72;;;26.63;;
47251;SDS011;32991;51.374;11.586;2023-04-29T09:57:00;31.92;;;25.95;;
47251;SDS011;32991;51.374;11.586;2023-04-29T09:59:34;32.33;;;26.10;;
47251;SDS011;32991;51.374;11.586;2023-04-29T10:02:06;31.95;;;26.73;;
47251;SDS011;32991;51.374;11.586;2023-04-29T10:04:47;33.53;;;25.48;;
47251;SDS011;32991;51.374;11.586;2023-04-29T10:07:22;30.35;;;23.88;;
47251;SDS011;32991;51.374;11.586;2023-04-29T10:09:51;27.67;;;22.55;;
47251;SDS011;32991;51.374;11.586;2023-04-29T10:12:18;24.98;;;19.65;;
47251;SDS011;32991;51.374;11.586;2023-04-29T10:14:54;20.67;;;17.63;;
47251;SDS011;32991;51.374;11.586;2023-04-29T10:17:25;21.65;;;17.58;;
47251;SDS011;32991;51.374;11.586;2023-04-29T10:20:08;24.02;;;18.95;;
47251;SDS011;32991;51.374;11.586;2023-04-29T10:22:44;21.42;;;17.02;;
47251;SDS011;32991;51.374;11.586;2023-04-29T10:25:16;16.80;;;15.07;;
47251;SDS011;32991;51.374;11.586;2023-04-29T10:27:44;16.35;;;13.35;;
47251;SDS011;32991;51.374;11.586;2023-04-29T10:30:11;12.70;;;11.40;;
47251;SDS011;32991;51.374;11.586;2023-04-29T10:32:40;11.77;;;10.35;;
47251;SDS011;32991;51.374;11.586;2023-04-29T10:35:17;11.98;;;10.57;;
47251;SDS011;32991;51.374;11.586;2023-04-29T10:37:49;11.27;;;9.70;;
47251;SDS011;32991;51.374;11.586;2023-04-29T10:40:23;11.32;;;10.20;;
47251;SDS011;32991;51.374;11.586;2023-04-29T10:42:54;10.93;;;9.43;;
47251;SDS011;32991;51.374;11.586;2023-04-29T10:45:24;11.65;;;10.25;;
47251;SDS011;32991;51.374;11.586;2023-04-29T10:50:28;11.25;;;9.13;;
47251;SDS011;32991;51.374;11.586;2023-04-29T10:52:55;10.75;;;9.52;;
47251;SDS011;32991;51.374;11.586;2023-04-29T10:55:23;11.82;;;10.65;;
47251;SDS011;32991;51.374;11.586;2023-04-29T10:57:53;12.90;;;10.80;;
47251;SDS011;32991;51.374;11.586;2023-04-29T11:00:25;12.43;;;10.55;;
47251;SDS011;32991;51.374;11.586;2023-04-29T11:02:56;12.10;;;10.02;;
47251;SDS011;32991;51.374;11.586;2023-04-29T11:05:36;12.57;;;11.25;;
47251;SDS011;32991;51.374;11.586;2023-04-29T11:08:12;12.25;;;11.05;;
47251;SDS011;32991;51.374;11.586;2023-04-29T11:10:42;11.23;;;10.15;;
47251;SDS011;32991;51.374;11.586;2023-04-29T11:13:25;11.80;;;10.55;;
47251;SDS011;32991;51.374;11.586;2023-04-29T11:16:02;13.02;;;11.40;;
47251;SDS011;32991;51.374;11.586;2023-04-29T11:18:36;12.20;;;10.90;;
47251;SDS011;32991;51.374;11.586;2023-04-29T11:21:32;14.80;;;12.00;;
47251;SDS011;32991;51.374;11.586;2023-04-29T11:24:03;13.80;;;11.68;;
47251;SDS011;32991;51.374;11.586;2023-04-29T11:26:33;13.05;;;11.57;;
47251;SDS011;32991;51.374;11.586;2023-04-29T11:29:00;13.02;;;11.50;;
47251;SDS011;32991;51.374;11.586;2023-04-29T11:31:32;13.02;;;11.75;;
47251;SDS011;32991;51.374;11.586;2023-04-29T11:34:02;12.65;;;11.45;;
47251;SDS011;32991;51.374;11.586;2023-04-29T11:36:32;15.00;;;11.40;;
47251;SDS011;32991;51.374;11.586;2023-04-29T11:38:59;13.52;;;12.13;;
47251;SDS011;32991;51.374;11.586;2023-04-29T11:41:26;12.70;;;11.50;;
47251;SDS011;32991;51.374;11.586;2023-04-29T11:43:54;12.65;;;11.35;;
47251;SDS011;32991;51.374;11.586;2023-04-29T11:46:24;12.18;;;10.98;;
47251;SDS011;32991;51.374;11.586;2023-04-29T11:48:51;11.15;;;10.05;;
47251;SDS011;32991;51.374;11.586;2023-04-29T11:51:18;9.10;;;8.30;;
47251;SDS011;32991;51.374;11.586;2023-04-29T11:53:45;9.25;;;8.32;;
47251;SDS011;32991;51.374;11.586;2023-04-29T11:56:11;9.05;;;8.23;;
47251;SDS011;32991;51.374;11.586;2023-04-29T11:58:38;8.65;;;7.85;;
47251;SDS011;32991;51.374;11.586;2023-04-29T12:01:04;9.23;;;8.27;;
47251;SDS011;32991;51.374;11.586;2023-04-29T12:03:31;10.02;;;8.60;;
47251;SDS011;32991;51.374;11.586;2023-04-29T12:06:00;9.52;;;8.20;;
47251;SDS011;32991;51.374;11.586;2023-04-29T12:08:27;9.30;;;8.38;;
47251;SDS011;32991;51.374;11.586;2023-04-29T12:10:57;9.93;;;8.93;;
47251;SDS011;32991;51.374;11.586;2023-04-29T12:13:26;10.00;;;9.00;;
47251;SDS011;32991;51.374;11.586;2023-04-29T12:15:53;10.27;;;8.68;;
47251;SDS011;32991;51.374;11.586;2023-04-29T12:18:21;9.77;;;8.77;;
47251;SDS011;32991;51.374;11.586;2023-04-29T12:20:49;8.77;;;7.97;;
47251;SDS011;32991;51.374;11.586;2023-04-29T12:23:24;11.95;;;8.90;;
47251;SDS011;32991;51.374;11.586;2023-04-29T12:25:57;11.85;;;8.38;;
47251;SDS011;32991;51.374;11.586;2023-04-29T12:28:25;9.52;;;8.60;;
47251;SDS011;32991;51.374;11.586;2023-04-29T12:30:52;9.48;;;8.57;;
47251;SDS011;32991;51.374;11.586;2023-04-29T12:35:50;9.48;;;8.57;;
47251;SDS011;32991;51.374;11.586;2023-04-29T12:38:20;8.40;;;7.68;;
47251;SDS011;32991;51.374;11.586;2023-04-29T12:40:47;9.90;;;8.90;;
47251;SDS011;32991;51.374;11.586;2023-04-29T12:43:14;9.45;;;8.55;;
47251;SDS011;32991;51.374;11.586;2023-04-29T12:45:41;8.98;;;8.07;;
47251;SDS011;32991;51.374;11.586;2023-04-29T12:48:08;9.15;;;8.25;;
47251;SDS011;32991;51.374;11.586;2023-04-29T12:50:50;9.50;;;8.35;;
47251;SDS011;32991;51.374;11.586;2023-04-29T12:53:17;9.73;;;8.13;;
47251;SDS011;32991;51.374;11.586;2023-04-29T12:55:44;8.48;;;7.68;;
47251;SDS011;32991;51.374;11.586;2023-04-29T12:58:10;9.05;;;8.20;;
47251;SDS011;32991;51.374;11.586;2023-04-29T13:00:37;8.13;;;7.32;;
47251;SDS011;32991;51.374;11.586;2023-04-29T13:03:04;10.02;;;8.32;;
47251;SDS011;32991;51.374;11.586;2023-04-29T13:05:31;9.15;;;8.27;;
47251;SDS011;32991;51.374;11.586;2023-04-29T13:07:58;9.70;;;8.73;;
47251;SDS011;32991;51.374;11.586;2023-04-29T13:10:24;9.80;;;8.90;;
47251;SDS011;32991;51.374;11.586;2023-04-29T13:12:51;10.63;;;9.07;;
47251;SDS011;32991;51.374;11.586;2023-04-29T13:15:17;9.98;;;9.00;;
47251;SDS011;32991;51.374;11.586;2023-04-29T13:17:44;10.32;;;9.32;;
47251;SDS011;32991;51.374;11.586;2023-04-29T13:20:11;9.63;;;8.65;;
47251;SDS011;32991;51.374;11.586;2023-04-29T13:22:38;10.70;;;9.70;;
47251;SDS011;32991;51.374;11.586;2023-04-29T13:25:04;11.93;;;9.48;;
47251;SDS011;32991;51.374;11.586;2023-04-29T13:27:31;12.73;;;8.80;;
47251;SDS011;32991;51.374;11.586;2023-04-29T13:29:57;9.15;;;8.30;;
47251;SDS011;32991;51.374;11.586;2023-04-29T13:32:24;9.55;;;8.60;;
47251;SDS011;32991;51.374;11.586;2023-04-29T13:34:51;11.05;;;9.00;;
47251;SDS011;32991;51.374;11.586;2023-04-29T13:37:17;12.43;;;9.57;;
47251;SDS011;32991;51.374;11.586;2023-04-29T13:39:45;10.55;;;9.60;;
47251;SDS011;32991;51.374;11.586;2023-04-29T13:42:13;9.98;;;8.73;;
47251;SDS011;32991;51.374;11.586;2023-04-29T13:44:41;9.63;;;8.63;;
47251;SDS011;32991;51.374;11.586;2023-04-29T13:47:18;10.35;;;8.65;;
47251;SDS011;32991;51.374;11.586;2023-04-29T13:49:51;11.30;;;9.20;;
47251;SDS011;32991;51.374;11.586;2023-04-29T13:52:20;8.75;;;7.95;;
47251;SDS011;32991;51.374;11.586;2023-04-29T13:54:50;10.15;;;8.35;;
47251;SDS011;32991;51.374;11.586;2023-04-29T13:57:36;10.82;;;9.15;;
47251;SDS011;32991;51.374;11.586;2023-04-29T14:00:06;9.63;;;7.78;;
47251;SDS011;32991;51.374;11.586;2023-04-29T14:02:54;8.27;;;7.25;;
47251;SDS011;32991;51.374;11.586;2023-04-29T14:05:24;8.20;;;7.40;;
47251;SDS011;32991;51.374;11.586;2023-04-29T14:07:51;9.73;;;7.88;;
47251;SDS011;32991;51.374;11.586;2023-04-29T14:10:17;10.23;;;7.30;;
47251;SDS011;32991;51.374;11.586;2023-04-29T14:12:44;9.52;;;7.47;;
47251;SDS011;32991;51.374;11.586;2023-04-29T14:15:10;10.63;;;7.18;;
47251;SDS011;32991;51.374;11.586;2023-04-29T14:17:37;8.10;;;7.30;;
47251;SDS011;32991;51.374;11.586;2023-04-29T14:20:04;10.43;;;7.63;;
47251;SDS011;32991;51.374;11.586;2023-04-29T14:22:31;11.15;;;7.35;;
47251;SDS011;32991;51.374;11.586;2023-04-29T14:24:57;8.15;;;7.35;;
47251;SDS011;32991;51.374;11.586;2023-04-29T14:27:24;8.23;;;7.43;;
47251;SDS011;32991;51.374;11.586;2023-04-29T14:29:50;10.05;;;6.93;;
47251;SDS011;32991;51.374;11.586;2023-04-29T14:32:16;9.60;;;7.05;;
47251;SDS011;32991;51.374;11.586;2023-04-29T14:34:43;8.55;;;7.40;;
47251;SDS011;32991;51.374;11.586;2023-04-29T14:37:09;9.07;;;6.88;;
47251;SDS011;32991;51.374;11.586;2023-04-29T14:39:36;8.63;;;7.05;;
47251;SDS011;32991;51.374;11.586;2023-04-29T14:42:03;6.88;;;6.28;;
47251;SDS011;32991;51.374;11.586;2023-04-29T14:44:29;11.00;;;6.90;;
47251;SDS011;32991;51.374;11.586;2023-04-29T14:46:56;10.35;;;6.75;;
47251;SDS011;32991;51.374;11.586;2023-04-29T14:49:22;8.77;;;7.10;;
47251;SDS011;32991;51.374;11.586;2023-04-29T14:51:49;7.22;;;6.53;;